sensor_id;sensor_type;location;lat;lon;timestamp;P1;durP1;ratioP1;P2;durP2;ratioP2
54745;SDS011;40640;48.130;11.356;2022-12-07T00:00:41;13.63;;;8.82;;
54745;SDS011;40640;48.130;11.356;2022-12-07T00:04:44;13.07;;;8.48;;
54745;SDS011;40640;48.130;11.356;2022-12-07T00:08:47;14.23;;;8.38;;
54745;SDS011;40640;48.130;11.356;2022-12-07T00:12:51;14.00;;;8.57;;
54745;SDS011;40640;48.130;11.356;2022-12-07T00:16:54;14.38;;;8.77;;
54745;SDS011;40640;48.130;11.356;2022-12-07T00:21:00;14.25;;;9.20;;
54745;SDS011;40640;48.130;11.356;2022-12-07T00:25:03;13.57;;;8.77;;
54745;SDS011;40640;48.130;11.356;2022-12-07T00:29:09;14.82;;;8.88;;
54745;SDS011;40640;48.130;11.356;2022-12-07T00:33:16;15.27;;;8.55;;
54745;SDS011;40640;48.130;11.356;2022-12-07T00:37:19;11.75;;;7.78;;
54745;SDS011;40640;48.130;11.356;2022-12-07T00:41:23;13.90;;;8.45;;
54745;SDS011;40640;48.130;11.356;2022-12-07T00:45:28;10.50;;;7.50;;
54745;SDS011;40640;48.130;11.356;2022-12-07T00:49:31;13.52;;;7.90;;
54745;SDS011;40640;48.130;11.356;2022-12-07T00:53:33;13.35;;;8.85;;
54745;SDS011;40640;48.130;11.356;2022-12-07T00:57:42;12.30;;;8.13;;
54745;SDS011;40640;48.130;11.356;2022-12-07T01:01:46;13.63;;;8.27;;
54745;SDS011;40640;48.130;11.356;2022-12-07T01:05:49;13.98;;;9.15;;
54745;SDS011;40640;48.130;11.356;2022-12-07T01:09:53;12.18;;;7.65;;
54745;SDS011;40640;48.130;11.356;2022-12-07T01:13:56;12.60;;;7.93;;
54745;SDS011;40640;48.130;11.356;2022-12-07T01:18:01;13.23;;;8.75;;
54745;SDS011;40640;48.130;11.356;2022-12-07T01:22:04;13.55;;;8.18;;
54745;SDS011;40640;48.130;11.356;2022-12-07T01:26:07;14.68;;;8.80;;
54745;SDS011;40640;48.130;11.356;2022-12-07T01:30:12;14.82;;;8.80;;
54745;SDS011;40640;48.130;11.356;2022-12-07T01:34:17;17.65;;;8.02;;
54745;SDS011;40640;48.130;11.356;2022-12-07T01:38:20;12.18;;;8.23;;
54745;SDS011;40640;48.130;11.356;2022-12-07T01:42:22;14.35;;;8.02;;
54745;SDS011;40640;48.130;11.356;2022-12-07T01:46:25;12.00;;;7.53;;
54745;SDS011;40640;48.130;11.356;2022-12-07T01:50:29;10.90;;;7.55;;
54745;SDS011;40640;48.130;11.356;2022-12-07T01:54:33;13.70;;;8.52;;
54745;SDS011;40640;48.130;11.356;2022-12-07T01:58:37;14.30;;;7.57;;
54745;SDS011;40640;48.130;11.356;2022-12-07T02:02:41;16.05;;;7.95;;
54745;SDS011;40640;48.130;11.356;2022-12-07T02:06:49;13.13;;;8.10;;
54745;SDS011;40640;48.130;11.356;2022-12-07T02:10:53;14.77;;;8.02;;
54745;SDS011;40640;48.130;11.356;2022-12-07T02:14:59;13.82;;;8.52;;
54745;SDS011;40640;48.130;11.356;2022-12-07T02:19:18;11.68;;;7.82;;
54745;SDS011;40640;48.130;11.356;2022-12-07T02:23:45;13.02;;;8.48;;
54745;SDS011;40640;48.130;11.356;2022-12-07T02:28:06;12.90;;;8.25;;
54745;SDS011;40640;48.130;11.356;2022-12-07T02:32:18;15.73;;;9.27;;
54745;SDS011;40640;48.130;11.356;2022-12-07T02:36:27;14.35;;;9.00;;
54745;SDS011;40640;48.130;11.356;2022-12-07T02:40:33;17.27;;;9.48;;
54745;SDS011;40640;48.130;11.356;2022-12-07T02:44:40;15.68;;;9.75;;
54745;SDS011;40640;48.130;11.356;2022-12-07T02:48:45;14.60;;;9.02;;
54745;SDS011;40640;48.130;11.356;2022-12-07T02:52:49;14.30;;;9.00;;
54745;SDS011;40640;48.130;11.356;2022-12-07T02:56:53;16.48;;;9.02;;
54745;SDS011;40640;48.130;11.356;2022-12-07T03:01:04;14.75;;;8.80;;
54745;SDS011;40640;48.130;11.356;2022-12-07T03:05:25;16.75;;;9.80;;
54745;SDS011;40640;48.130;11.356;2022-12-07T03:09:45;15.20;;;9.45;;
54745;SDS011;40640;48.130;11.356;2022-12-07T03:13:56;14.35;;;8.43;;
54745;SDS011;40640;48.130;11.356;2022-12-07T03:18:05;17.30;;;9.07;;
54745;SDS011;40640;48.130;11.356;2022-12-07T03:22:12;15.60;;;9.48;;
54745;SDS011;40640;48.130;11.356;2022-12-07T03:26:16;15.25;;;9.45;;
54745;SDS011;40640;48.130;11.356;2022-12-07T03:30:22;15.85;;;9.20;;
54745;SDS011;40640;48.130;11.356;2022-12-07T03:34:27;18.52;;;9.18;;
54745;SDS011;40640;48.130;11.356;2022-12-07T03:38:36;15.35;;;8.65;;
54745;SDS011;40640;48.130;11.356;2022-12-07T03:42:43;14.82;;;9.38;;
54745;SDS011;40640;48.130;11.356;2022-12-07T03:46:48;14.90;;;9.73;;
54745;SDS011;40640;48.130;11.356;2022-12-07T03:51:04;12.87;;;8.60;;
54745;SDS011;40640;48.130;11.356;2022-12-07T03:55:14;13.82;;;8.68;;
54745;SDS011;40640;48.130;11.356;2022-12-07T03:59:20;15.88;;;8.80;;
54745;SDS011;40640;48.130;11.356;2022-12-07T04:03:23;13.82;;;8.25;;
54745;SDS011;40640;48.130;11.356;2022-12-07T04:07:26;15.45;;;9.05;;
54745;SDS011;40640;48.130;11.356;2022-12-07T04:11:30;16.60;;;8.85;;
54745;SDS011;40640;48.130;11.356;2022-12-07T04:15:33;16.95;;;8.93;;
54745;SDS011;40640;48.130;11.356;2022-12-07T04:19:36;15.90;;;9.45;;
54745;SDS011;40640;48.130;11.356;2022-12-07T04:23:39;14.60;;;8.73;;
54745;SDS011;40640;48.130;11.356;2022-12-07T04:27:43;14.98;;;8.80;;
54745;SDS011;40640;48.130;11.356;2022-12-07T04:31:46;15.07;;;8.80;;
54745;SDS011;40640;48.130;11.356;2022-12-07T04:35:49;15.15;;;8.65;;
54745;SDS011;40640;48.130;11.356;2022-12-07T04:39:52;13.20;;;8.30;;
54745;SDS011;40640;48.130;11.356;2022-12-07T04:43:56;14.00;;;9.02;;
54745;SDS011;40640;48.130;11.356;2022-12-07T04:48:00;14.90;;;9.10;;
54745;SDS011;40640;48.130;11.356;2022-12-07T04:52:03;14.02;;;9.05;;
54745;SDS011;40640;48.130;11.356;2022-12-07T04:56:06;15.43;;;9.40;;
54745;SDS011;40640;48.130;11.356;2022-12-07T05:00:12;13.27;;;8.77;;
54745;SDS011;40640;48.130;11.356;2022-12-07T05:04:15;15.55;;;9.30;;
54745;SDS011;40640;48.130;11.356;2022-12-07T05:08:19;13.93;;;8.82;;
54745;SDS011;40640;48.130;11.356;2022-12-07T05:12:21;15.00;;;8.77;;
54745;SDS011;40640;48.130;11.356;2022-12-07T05:16:26;13.20;;;8.68;;
54745;SDS011;40640;48.130;11.356;2022-12-07T05:20:29;13.60;;;8.90;;
54745;SDS011;40640;48.130;11.356;2022-12-07T05:24:32;12.30;;;7.93;;
54745;SDS011;40640;48.130;11.356;2022-12-07T05:28:34;14.55;;;8.63;;
54745;SDS011;40640;48.130;11.356;2022-12-07T05:32:38;14.85;;;9.13;;
54745;SDS011;40640;48.130;11.356;2022-12-07T05:36:41;19.80;;;10.40;;
54745;SDS011;40640;48.130;11.356;2022-12-07T05:40:44;17.48;;;10.00;;
54745;SDS011;40640;48.130;11.356;2022-12-07T05:44:47;23.88;;;13.43;;
54745;SDS011;40640;48.130;11.356;2022-12-07T05:48:51;16.40;;;9.55;;
54745;SDS011;40640;48.130;11.356;2022-12-07T05:52:54;22.67;;;11.75;;
54745;SDS011;40640;48.130;11.356;2022-12-07T05:56:56;21.63;;;11.55;;
54745;SDS011;40640;48.130;11.356;2022-12-07T06:00:59;17.38;;;10.60;;
54745;SDS011;40640;48.130;11.356;2022-12-07T06:05:04;32.72;;;16.48;;
54745;SDS011;40640;48.130;11.356;2022-12-07T06:09:08;28.37;;;14.17;;
54745;SDS011;40640;48.130;11.356;2022-12-07T06:13:11;35.05;;;17.50;;
54745;SDS011;40640;48.130;11.356;2022-12-07T06:17:14;46.78;;;21.65;;
54745;SDS011;40640;48.130;11.356;2022-12-07T06:21:19;27.88;;;16.23;;
54745;SDS011;40640;48.130;11.356;2022-12-07T06:25:21;20.13;;;12.05;;
54745;SDS011;40640;48.130;11.356;2022-12-07T06:29:24;26.27;;;14.95;;
54745;SDS011;40640;48.130;11.356;2022-12-07T06:33:27;19.58;;;11.43;;
54745;SDS011;40640;48.130;11.356;2022-12-07T06:37:32;19.45;;;11.35;;
54745;SDS011;40640;48.130;11.356;2022-12-07T06:41:35;22.48;;;11.98;;
54745;SDS011;40640;48.130;11.356;2022-12-07T06:45:38;17.85;;;11.02;;
54745;SDS011;40640;48.130;11.356;2022-12-07T06:49:41;21.67;;;12.15;;
54745;SDS011;40640;48.130;11.356;2022-12-07T06:53:45;20.05;;;11.73;;
54745;SDS011;40640;48.130;11.356;2022-12-07T06:57:48;23.23;;;13.88;;
54745;SDS011;40640;48.130;11.356;2022-12-07T07:01:51;21.60;;;12.50;;
54745;SDS011;40640;48.130;11.356;2022-12-07T07:05:53;22.17;;;13.80;;
54745;SDS011;40640;48.130;11.356;2022-12-07T07:09:57;23.08;;;13.68;;
54745;SDS011;40640;48.130;11.356;2022-12-07T07:14:01;21.58;;;13.43;;
54745;SDS011;40640;48.130;11.356;2022-12-07T07:18:04;24.30;;;13.73;;
54745;SDS011;40640;48.130;11.356;2022-12-07T07:22:08;23.65;;;14.23;;
54745;SDS011;40640;48.130;11.356;2022-12-07T07:26:12;22.92;;;13.13;;
54745;SDS011;40640;48.130;11.356;2022-12-07T07:30:23;25.77;;;14.75;;
54745;SDS011;40640;48.130;11.356;2022-12-07T07:34:26;37.70;;;17.08;;
54745;SDS011;40640;48.130;11.356;2022-12-07T07:38:28;25.08;;;14.23;;
54745;SDS011;40640;48.130;11.356;2022-12-07T07:42:33;30.20;;;14.93;;
54745;SDS011;40640;48.130;11.356;2022-12-07T07:46:35;26.10;;;14.40;;
54745;SDS011;40640;48.130;11.356;2022-12-07T07:50:38;27.17;;;15.13;;
54745;SDS011;40640;48.130;11.356;2022-12-07T07:54:41;24.17;;;13.52;;
54745;SDS011;40640;48.130;11.356;2022-12-07T07:58:45;27.98;;;16.10;;
54745;SDS011;40640;48.130;11.356;2022-12-07T08:02:48;25.38;;;15.30;;
54745;SDS011;40640;48.130;11.356;2022-12-07T08:06:51;30.02;;;16.73;;
54745;SDS011;40640;48.130;11.356;2022-12-07T08:10:54;31.85;;;16.42;;
54745;SDS011;40640;48.130;11.356;2022-12-07T08:14:58;31.55;;;16.90;;
54745;SDS011;40640;48.130;11.356;2022-12-07T08:19:01;24.30;;;14.15;;
54745;SDS011;40640;48.130;11.356;2022-12-07T08:23:03;29.05;;;15.38;;
54745;SDS011;40640;48.130;11.356;2022-12-07T08:27:06;24.33;;;14.52;;
54745;SDS011;40640;48.130;11.356;2022-12-07T08:31:11;33.38;;;16.83;;
54745;SDS011;40640;48.130;11.356;2022-12-07T08:39:18;27.48;;;14.85;;
54745;SDS011;40640;48.130;11.356;2022-12-07T08:43:33;25.20;;;15.10;;
54745;SDS011;40640;48.130;11.356;2022-12-07T08:47:39;23.73;;;13.50;;
54745;SDS011;40640;48.130;11.356;2022-12-07T08:51:45;27.30;;;15.20;;
54745;SDS011;40640;48.130;11.356;2022-12-07T08:55:49;26.08;;;13.88;;
54745;SDS011;40640;48.130;11.356;2022-12-07T08:59:52;23.45;;;13.65;;
54745;SDS011;40640;48.130;11.356;2022-12-07T09:03:56;25.33;;;14.25;;
54745;SDS011;40640;48.130;11.356;2022-12-07T09:08:00;25.10;;;14.60;;
54745;SDS011;40640;48.130;11.356;2022-12-07T09:12:04;25.33;;;15.35;;
54745;SDS011;40640;48.130;11.356;2022-12-07T09:16:07;26.25;;;14.73;;
54745;SDS011;40640;48.130;11.356;2022-12-07T09:20:11;25.73;;;13.60;;
54745;SDS011;40640;48.130;11.356;2022-12-07T09:24:14;22.58;;;13.38;;
54745;SDS011;40640;48.130;11.356;2022-12-07T09:28:17;23.05;;;13.13;;
54745;SDS011;40640;48.130;11.356;2022-12-07T09:32:20;20.38;;;12.60;;
54745;SDS011;40640;48.130;11.356;2022-12-07T09:36:24;18.15;;;11.55;;
54745;SDS011;40640;48.130;11.356;2022-12-07T09:40:28;19.70;;;11.45;;
54745;SDS011;40640;48.130;11.356;2022-12-07T09:44:32;18.38;;;11.98;;
54745;SDS011;40640;48.130;11.356;2022-12-07T09:48:36;15.63;;;10.63;;
54745;SDS011;40640;48.130;11.356;2022-12-07T09:52:41;21.63;;;13.25;;
54745;SDS011;40640;48.130;11.356;2022-12-07T09:56:45;20.30;;;12.65;;
54745;SDS011;40640;48.130;11.356;2022-12-07T10:00:48;18.48;;;11.90;;
54745;SDS011;40640;48.130;11.356;2022-12-07T10:04:52;15.88;;;10.65;;
54745;SDS011;40640;48.130;11.356;2022-12-07T10:08:57;17.63;;;10.98;;
54745;SDS011;40640;48.130;11.356;2022-12-07T10:13:00;23.10;;;14.30;;
54745;SDS011;40640;48.130;11.356;2022-12-07T10:17:17;17.40;;;10.93;;
54745;SDS011;40640;48.130;11.356;2022-12-07T10:21:31;14.38;;;9.02;;
54745;SDS011;40640;48.130;11.356;2022-12-07T10:25:36;15.27;;;9.63;;
54745;SDS011;40640;48.130;11.356;2022-12-07T10:29:42;13.27;;;8.52;;
54745;SDS011;40640;48.130;11.356;2022-12-07T10:33:51;13.70;;;8.63;;
54745;SDS011;40640;48.130;11.356;2022-12-07T10:37:55;15.68;;;9.27;;
54745;SDS011;40640;48.130;11.356;2022-12-07T10:42:02;13.25;;;8.60;;
54745;SDS011;40640;48.130;11.356;2022-12-07T10:46:13;13.52;;;9.05;;
54745;SDS011;40640;48.130;11.356;2022-12-07T10:50:37;12.15;;;8.82;;
54745;SDS011;40640;48.130;11.356;2022-12-07T10:54:51;11.88;;;7.47;;
54745;SDS011;40640;48.130;11.356;2022-12-07T10:59:15;11.73;;;7.30;;
54745;SDS011;40640;48.130;11.356;2022-12-07T11:03:32;10.55;;;8.00;;
54745;SDS011;40640;48.130;11.356;2022-12-07T11:07:46;10.45;;;7.03;;
54745;SDS011;40640;48.130;11.356;2022-12-07T11:11:59;9.95;;;7.32;;
54745;SDS011;40640;48.130;11.356;2022-12-07T11:16:23;8.45;;;7.15;;
54745;SDS011;40640;48.130;11.356;2022-12-07T11:20:38;8.48;;;6.90;;
54745;SDS011;40640;48.130;11.356;2022-12-07T11:24:47;9.73;;;7.93;;
54745;SDS011;40640;48.130;11.356;2022-12-07T11:28:59;6.72;;;6.03;;
54745;SDS011;40640;48.130;11.356;2022-12-07T11:33:15;6.03;;;5.07;;
54745;SDS011;40640;48.130;11.356;2022-12-07T11:37:23;6.15;;;5.30;;
54745;SDS011;40640;48.130;11.356;2022-12-07T11:41:38;5.97;;;5.13;;
54745;SDS011;40640;48.130;11.356;2022-12-07T11:45:44;6.63;;;5.43;;
54745;SDS011;40640;48.130;11.356;2022-12-07T11:53:56;9.65;;;6.15;;
54745;SDS011;40640;48.130;11.356;2022-12-07T11:58:04;11.30;;;6.00;;
54745;SDS011;40640;48.130;11.356;2022-12-07T12:02:13;9.70;;;6.70;;
54745;SDS011;40640;48.130;11.356;2022-12-07T12:06:19;7.60;;;5.80;;
54745;SDS011;40640;48.130;11.356;2022-12-07T12:10:24;8.00;;;5.93;;
54745;SDS011;40640;48.130;11.356;2022-12-07T12:14:38;10.20;;;6.55;;
54745;SDS011;40640;48.130;11.356;2022-12-07T12:18:57;9.85;;;6.30;;
54745;SDS011;40640;48.130;11.356;2022-12-07T12:23:13;10.48;;;5.72;;
54745;SDS011;40640;48.130;11.356;2022-12-07T12:27:21;9.77;;;5.53;;
54745;SDS011;40640;48.130;11.356;2022-12-07T12:31:37;8.63;;;6.15;;
54745;SDS011;40640;48.130;11.356;2022-12-07T12:35:42;9.25;;;5.93;;
54745;SDS011;40640;48.130;11.356;2022-12-07T12:39:56;8.35;;;6.13;;
54745;SDS011;40640;48.130;11.356;2022-12-07T12:44:41;8.00;;;6.17;;
54745;SDS011;40640;48.130;11.356;2022-12-07T12:53:45;6.85;;;5.45;;
54745;SDS011;40640;48.130;11.356;2022-12-07T13:02:32;8.50;;;5.40;;
54745;SDS011;40640;48.130;11.356;2022-12-07T13:06:38;7.88;;;5.70;;
54745;SDS011;40640;48.130;11.356;2022-12-07T13:10:44;9.55;;;6.38;;
54745;SDS011;40640;48.130;11.356;2022-12-07T13:14:53;9.27;;;5.25;;
54745;SDS011;40640;48.130;11.356;2022-12-07T13:18:58;11.15;;;6.03;;
54745;SDS011;40640;48.130;11.356;2022-12-07T13:23:01;13.13;;;7.30;;
54745;SDS011;40640;48.130;11.356;2022-12-07T13:27:06;12.43;;;7.50;;
54745;SDS011;40640;48.130;11.356;2022-12-07T13:35:37;24.80;;;13.07;;
54745;SDS011;40640;48.130;11.356;2022-12-07T13:39:44;8.50;;;5.93;;
54745;SDS011;40640;48.130;11.356;2022-12-07T13:43:49;10.25;;;6.07;;
54745;SDS011;40640;48.130;11.356;2022-12-07T13:47:55;21.77;;;9.32;;
54745;SDS011;40640;48.130;11.356;2022-12-07T13:52:13;14.63;;;5.38;;
54745;SDS011;40640;48.130;11.356;2022-12-07T13:56:18;8.93;;;5.55;;
54745;SDS011;40640;48.130;11.356;2022-12-07T14:00:25;15.00;;;7.07;;
54745;SDS011;40640;48.130;11.356;2022-12-07T14:04:34;14.27;;;5.55;;
54745;SDS011;40640;48.130;11.356;2022-12-07T14:08:39;7.55;;;5.00;;
54745;SDS011;40640;48.130;11.356;2022-12-07T14:12:41;10.40;;;6.45;;
54745;SDS011;40640;48.130;11.356;2022-12-07T14:16:54;12.93;;;7.40;;
54745;SDS011;40640;48.130;11.356;2022-12-07T14:21:04;8.85;;;5.80;;
54745;SDS011;40640;48.130;11.356;2022-12-07T14:25:17;9.05;;;5.43;;
54745;SDS011;40640;48.130;11.356;2022-12-07T14:29:32;8.25;;;5.50;;
54745;SDS011;40640;48.130;11.356;2022-12-07T14:33:35;10.52;;;5.70;;
54745;SDS011;40640;48.130;11.356;2022-12-07T14:37:40;7.45;;;5.20;;
54745;SDS011;40640;48.130;11.356;2022-12-07T14:41:46;11.38;;;6.97;;
54745;SDS011;40640;48.130;11.356;2022-12-07T14:45:52;13.45;;;6.45;;
54745;SDS011;40640;48.130;11.356;2022-12-07T14:49:55;10.40;;;6.00;;
54745;SDS011;40640;48.130;11.356;2022-12-07T14:54:05;11.00;;;6.43;;
54745;SDS011;40640;48.130;11.356;2022-12-07T14:58:11;8.10;;;5.82;;
54745;SDS011;40640;48.130;11.356;2022-12-07T15:02:15;13.20;;;8.48;;
54745;SDS011;40640;48.130;11.356;2022-12-07T15:06:18;16.52;;;10.80;;
54745;SDS011;40640;48.130;11.356;2022-12-07T15:10:23;21.83;;;10.15;;
54745;SDS011;40640;48.130;11.356;2022-12-07T15:14:30;15.63;;;7.88;;
54745;SDS011;40640;48.130;11.356;2022-12-07T15:18:33;12.88;;;6.80;;
54745;SDS011;40640;48.130;11.356;2022-12-07T15:22:36;10.45;;;6.72;;
54745;SDS011;40640;48.130;11.356;2022-12-07T15:26:40;13.65;;;6.22;;
54745;SDS011;40640;48.130;11.356;2022-12-07T15:30:44;13.38;;;7.18;;
54745;SDS011;40640;48.130;11.356;2022-12-07T15:34:47;14.27;;;6.80;;
54745;SDS011;40640;48.130;11.356;2022-12-07T15:38:51;12.00;;;6.38;;
54745;SDS011;40640;48.130;11.356;2022-12-07T15:43:15;15.65;;;7.65;;
54745;SDS011;40640;48.130;11.356;2022-12-07T15:47:33;45.05;;;20.48;;
54745;SDS011;40640;48.130;11.356;2022-12-07T15:51:58;20.20;;;9.88;;
54745;SDS011;40640;48.130;11.356;2022-12-07T15:56:00;20.75;;;7.53;;
54745;SDS011;40640;48.130;11.356;2022-12-07T16:00:05;13.65;;;6.90;;
54745;SDS011;40640;48.130;11.356;2022-12-07T16:04:11;16.40;;;8.65;;
54745;SDS011;40640;48.130;11.356;2022-12-07T16:08:14;28.58;;;13.25;;
54745;SDS011;40640;48.130;11.356;2022-12-07T16:12:16;16.33;;;8.85;;
54745;SDS011;40640;48.130;11.356;2022-12-07T16:16:21;16.25;;;8.43;;
54745;SDS011;40640;48.130;11.356;2022-12-07T16:20:24;13.55;;;6.97;;
54745;SDS011;40640;48.130;11.356;2022-12-07T16:24:27;14.50;;;8.85;;
54745;SDS011;40640;48.130;11.356;2022-12-07T16:28:29;18.75;;;10.77;;
54745;SDS011;40640;48.130;11.356;2022-12-07T16:32:34;24.98;;;12.55;;
54745;SDS011;40640;48.130;11.356;2022-12-07T16:36:36;19.33;;;11.48;;
54745;SDS011;40640;48.130;11.356;2022-12-07T16:40:59;21.33;;;11.45;;
54745;SDS011;40640;48.130;11.356;2022-12-07T16:45:02;30.75;;;15.18;;
54745;SDS011;40640;48.130;11.356;2022-12-07T16:49:08;43.42;;;21.02;;
54745;SDS011;40640;48.130;11.356;2022-12-07T16:53:14;36.15;;;17.45;;
54745;SDS011;40640;48.130;11.356;2022-12-07T16:57:17;31.02;;;17.13;;
54745;SDS011;40640;48.130;11.356;2022-12-07T17:05:30;26.55;;;13.07;;
54745;SDS011;40640;48.130;11.356;2022-12-07T17:09:33;19.90;;;10.77;;
54745;SDS011;40640;48.130;11.356;2022-12-07T17:13:36;22.75;;;12.13;;
54745;SDS011;40640;48.130;11.356;2022-12-07T17:17:57;25.05;;;11.82;;
54745;SDS011;40640;48.130;11.356;2022-12-07T17:22:01;25.65;;;13.20;;
54745;SDS011;40640;48.130;11.356;2022-12-07T17:26:05;27.95;;;13.63;;
54745;SDS011;40640;48.130;11.356;2022-12-07T17:30:09;20.58;;;10.40;;
54745;SDS011;40640;48.130;11.356;2022-12-07T17:34:13;18.38;;;9.13;;
54745;SDS011;40640;48.130;11.356;2022-12-07T17:38:18;24.85;;;12.48;;
54745;SDS011;40640;48.130;11.356;2022-12-07T17:42:21;21.10;;;9.73;;
54745;SDS011;40640;48.130;11.356;2022-12-07T17:46:40;21.30;;;10.40;;
54745;SDS011;40640;48.130;11.356;2022-12-07T17:50:43;17.83;;;8.93;;
54745;SDS011;40640;48.130;11.356;2022-12-07T17:55:05;22.98;;;10.50;;
54745;SDS011;40640;48.130;11.356;2022-12-07T17:59:08;22.85;;;8.85;;
54745;SDS011;40640;48.130;11.356;2022-12-07T18:03:11;18.98;;;10.10;;
54745;SDS011;40640;48.130;11.356;2022-12-07T18:07:14;25.85;;;10.05;;
54745;SDS011;40640;48.130;11.356;2022-12-07T18:11:19;28.92;;;12.65;;
54745;SDS011;40640;48.130;11.356;2022-12-07T18:15:22;26.83;;;11.18;;
54745;SDS011;40640;48.130;11.356;2022-12-07T18:19:24;30.27;;;12.60;;
54745;SDS011;40640;48.130;11.356;2022-12-07T18:23:27;36.85;;;14.40;;
54745;SDS011;40640;48.130;11.356;2022-12-07T18:27:31;52.88;;;17.88;;
54745;SDS011;40640;48.130;11.356;2022-12-07T18:31:34;47.08;;;16.70;;
54745;SDS011;40640;48.130;11.356;2022-12-07T18:35:37;38.00;;;16.13;;
54745;SDS011;40640;48.130;11.356;2022-12-07T18:39:40;34.58;;;14.70;;
54745;SDS011;40640;48.130;11.356;2022-12-07T18:43:45;34.53;;;15.70;;
54745;SDS011;40640;48.130;11.356;2022-12-07T18:47:48;44.85;;;21.42;;
54745;SDS011;40640;48.130;11.356;2022-12-07T18:51:50;45.03;;;19.17;;
54745;SDS011;40640;48.130;11.356;2022-12-07T18:56:00;30.50;;;14.02;;
54745;SDS011;40640;48.130;11.356;2022-12-07T19:00:06;28.77;;;14.50;;
54745;SDS011;40640;48.130;11.356;2022-12-07T19:04:09;27.40;;;14.70;;
54745;SDS011;40640;48.130;11.356;2022-12-07T19:08:12;35.03;;;14.13;;
54745;SDS011;40640;48.130;11.356;2022-12-07T19:12:15;29.15;;;14.82;;
54745;SDS011;40640;48.130;11.356;2022-12-07T19:16:19;30.00;;;15.00;;
54745;SDS011;40640;48.130;11.356;2022-12-07T19:20:22;36.90;;;19.33;;
54745;SDS011;40640;48.130;11.356;2022-12-07T19:24:25;29.00;;;14.02;;
54745;SDS011;40640;48.130;11.356;2022-12-07T19:28:28;32.65;;;15.70;;
54745;SDS011;40640;48.130;11.356;2022-12-07T19:32:32;25.67;;;13.25;;
54745;SDS011;40640;48.130;11.356;2022-12-07T19:36:35;30.00;;;14.38;;
54745;SDS011;40640;48.130;11.356;2022-12-07T19:40:39;34.38;;;17.83;;
54745;SDS011;40640;48.130;11.356;2022-12-07T19:44:41;31.15;;;14.00;;
54745;SDS011;40640;48.130;11.356;2022-12-07T19:48:46;31.77;;;16.25;;
54745;SDS011;40640;48.130;11.356;2022-12-07T19:52:49;25.65;;;14.65;;
54745;SDS011;40640;48.130;11.356;2022-12-07T19:56:52;39.72;;;17.48;;
54745;SDS011;40640;48.130;11.356;2022-12-07T20:01:00;27.48;;;13.93;;
54745;SDS011;40640;48.130;11.356;2022-12-07T20:05:05;24.50;;;13.13;;
54745;SDS011;40640;48.130;11.356;2022-12-07T20:09:09;29.13;;;13.82;;
54745;SDS011;40640;48.130;11.356;2022-12-07T20:13:12;27.77;;;13.82;;
54745;SDS011;40640;48.130;11.356;2022-12-07T20:17:31;22.15;;;11.57;;
54745;SDS011;40640;48.130;11.356;2022-12-07T20:21:36;24.15;;;12.55;;
54745;SDS011;40640;48.130;11.356;2022-12-07T20:25:39;26.05;;;13.18;;
54745;SDS011;40640;48.130;11.356;2022-12-07T20:29:42;28.83;;;12.40;;
54745;SDS011;40640;48.130;11.356;2022-12-07T20:33:45;20.75;;;11.10;;
54745;SDS011;40640;48.130;11.356;2022-12-07T20:37:50;27.88;;;13.82;;
54745;SDS011;40640;48.130;11.356;2022-12-07T20:41:53;26.55;;;13.38;;
54745;SDS011;40640;48.130;11.356;2022-12-07T20:46:13;21.33;;;12.02;;
54745;SDS011;40640;48.130;11.356;2022-12-07T20:50:16;21.48;;;12.18;;
54745;SDS011;40640;48.130;11.356;2022-12-07T20:54:20;28.75;;;14.35;;
54745;SDS011;40640;48.130;11.356;2022-12-07T20:58:23;27.23;;;13.77;;
54745;SDS011;40640;48.130;11.356;2022-12-07T21:02:29;23.92;;;12.32;;
54745;SDS011;40640;48.130;11.356;2022-12-07T21:06:32;23.63;;;11.90;;
54745;SDS011;40640;48.130;11.356;2022-12-07T21:10:36;21.55;;;11.60;;
54745;SDS011;40640;48.130;11.356;2022-12-07T21:14:39;26.90;;;12.25;;
54745;SDS011;40640;48.130;11.356;2022-12-07T21:18:42;29.70;;;13.10;;
54745;SDS011;40640;48.130;11.356;2022-12-07T21:22:48;25.03;;;11.73;;
54745;SDS011;40640;48.130;11.356;2022-12-07T21:26:52;23.05;;;12.43;;
54745;SDS011;40640;48.130;11.356;2022-12-07T21:30:55;25.00;;;11.15;;
54745;SDS011;40640;48.130;11.356;2022-12-07T21:35:14;22.58;;;11.70;;
54745;SDS011;40640;48.130;11.356;2022-12-07T21:39:16;23.08;;;11.50;;
54745;SDS011;40640;48.130;11.356;2022-12-07T21:43:21;19.80;;;10.93;;
54745;SDS011;40640;48.130;11.356;2022-12-07T21:47:24;26.00;;;13.60;;
54745;SDS011;40640;48.130;11.356;2022-12-07T21:51:27;24.40;;;13.38;;
54745;SDS011;40640;48.130;11.356;2022-12-07T21:55:31;21.17;;;11.55;;
54745;SDS011;40640;48.130;11.356;2022-12-07T21:59:35;25.95;;;11.77;;
54745;SDS011;40640;48.130;11.356;2022-12-07T22:03:39;20.38;;;11.23;;
54745;SDS011;40640;48.130;11.356;2022-12-07T22:07:41;22.42;;;11.90;;
54745;SDS011;40640;48.130;11.356;2022-12-07T22:11:44;20.58;;;11.30;;
54745;SDS011;40640;48.130;11.356;2022-12-07T22:15:49;24.67;;;11.80;;
54745;SDS011;40640;48.130;11.356;2022-12-07T22:19:52;23.75;;;11.90;;
54745;SDS011;40640;48.130;11.356;2022-12-07T22:23:55;36.15;;;14.38;;
54745;SDS011;40640;48.130;11.356;2022-12-07T22:27:57;22.52;;;11.98;;
54745;SDS011;40640;48.130;11.356;2022-12-07T22:32:01;25.35;;;12.50;;
54745;SDS011;40640;48.130;11.356;2022-12-07T22:36:24;22.15;;;11.70;;
54745;SDS011;40640;48.130;11.356;2022-12-07T22:40:28;26.70;;;12.95;;
54745;SDS011;40640;48.130;11.356;2022-12-07T22:44:31;22.77;;;11.70;;
54745;SDS011;40640;48.130;11.356;2022-12-07T22:48:35;22.58;;;12.45;;
54745;SDS011;40640;48.130;11.356;2022-12-07T22:52:38;24.35;;;11.63;;
54745;SDS011;40640;48.130;11.356;2022-12-07T22:56:41;22.98;;;11.68;;
54745;SDS011;40640;48.130;11.356;2022-12-07T23:00:45;23.52;;;12.38;;
54745;SDS011;40640;48.130;11.356;2022-12-07T23:04:49;26.13;;;13.10;;
54745;SDS011;40640;48.130;11.356;2022-12-07T23:08:52;25.13;;;12.77;;
54745;SDS011;40640;48.130;11.356;2022-12-07T23:12:57;23.63;;;12.40;;
54745;SDS011;40640;48.130;11.356;2022-12-07T23:17:17;25.27;;;13.90;;
54745;SDS011;40640;48.130;11.356;2022-12-07T23:21:21;29.58;;;13.45;;
54745;SDS011;40640;48.130;11.356;2022-12-07T23:25:24;28.67;;;14.38;;
54745;SDS011;40640;48.130;11.356;2022-12-07T23:29:26;29.38;;;14.30;;
54745;SDS011;40640;48.130;11.356;2022-12-07T23:33:29;24.73;;;13.48;;
54745;SDS011;40640;48.130;11.356;2022-12-07T23:37:33;23.67;;;12.63;;
54745;SDS011;40640;48.130;11.356;2022-12-07T23:41:36;26.40;;;13.15;;
54745;SDS011;40640;48.130;11.356;2022-12-07T23:45:39;25.25;;;13.68;;
54745;SDS011;40640;48.130;11.356;2022-12-07T23:49:46;20.80;;;11.90;;
54745;SDS011;40640;48.130;11.356;2022-12-07T23:53:50;26.77;;;12.68;;
54745;SDS011;40640;48.130;11.356;2022-12-07T23:57:54;25.10;;;13.00;;
